Pagrindinis puslapis
METAR-TAF:

METAR-TAF

Oro uostai :

Port Heiden, Aliaska, Jungtinės Amerikos Valstijos

platuma: 56-57N, ilguma: 158-38W, Aukštis: 29 m

Dabartinis oras

Ataskaita buvo paskelbta 56 minutes, ne 08:56 UTC
Vėjas 8 kt iš Šiaurės/Šiaurės Rytų
Temperatūra -11°C
Drėgmė 72%
Slėgis 1002 hPa
Matomumas: 16.1 km
Mažai debesys ne aukštis 5000 ft

METAR: PAPH 260856Z AUTO 03008KT 10SM FEW050 M11/M15 A2960 RMK AO2 SLP026 T11111150 53083 FZRANO

Laikas: 00:52 (09:52 UTC)


TAF: trūkstamas

Orai ataskaitas ir orų prognozės (METAR, TAF).

turimą stotys yra geltonos ir raudonos taškus žemėlapyje.

Perkelti pele per norėdami pamatyti stoties vardą.

Tada spustelėkite, norėdami matyti oro stebėjimo ir prognozės.

Norėdami pakeisti žemėlapį: spustelėkite ant žalios mygtukų su juodo kryžiaus žemyn,; žalią mygtuką su brūkšneliu, jei norite nutolinti; arba žalių rodyklių gretimoms žemėlapius.


METAR-TAF: